Brandy Bar — WDF7323 — position and weather

sailwx.info

Track history (hours):
 
Tides and Currents Weather Stations Pressure Air Temp Water Temp Dewpoint Dewpoint Depression Visibility Wind Speed Wind Dir Waves Ship Positions

Brandy Bar

Owner: Brandy Bar, Tiburon, CA. More information available from US FCC via Universal Licensing System and Coast Guard Vessel Documentation Center.

Last reported at 2017-Nov-16 01:14 UTC. Time now 2017-Nov-22 09:05 UTC.
Position N 37°47' W 122°23'.

Type: Towing. MMSI: 367483310.

Date/timePositionNaut miles runAvg speedWind from/ knotsBaromVisibWave heightAir tempDewpointWater temp
2017-Nov-16 01:14N 37°47' W 122°23'12 5.0
2017-Nov-15 22:54N 37°35' W 122°19'0 0.0
2017-Nov-15 22:30N 37°35' W 122°19'0 0.0
2017-Nov-15 21:21N 37°35' W 122°19'0 0.2
2017-Nov-15 21:00N 37°35' W 122°19'0 0.1
2017-Nov-15 20:30N 37°35' W 122°19'0 0.0
2017-Nov-14 07:59N 37°35' W 122°19'1 1.0
2017-Nov-14 07:30N 37°36' W 122°19'3 5.3
2017-Nov-14 07:01N 37°38' W 122°19'3 5.2
2017-Nov-14 06:30N 37°41' W 122°20'3 5.2
2017-Nov-14 06:01N 37°43' W 122°21'3 5.3
2017-Nov-14 05:31N 37°46' W 122°22'3 5.3
2017-Nov-14 05:01N 37°48' W 122°24'2 3.5
2017-Nov-14 04:31N 37°49' W 122°25'2 4.4
2017-Nov-14 04:00N 37°48' W 122°23'2 4.4
2017-Nov-14 03:30N 37°46' W 122°22'2 4.0
2017-Nov-14 03:00N 37°44' W 122°21'2 3.9
2017-Nov-14 02:30N 37°42' W 122°21'2 4.0
2017-Nov-14 02:00N 37°40' W 122°20'2 4.0
2017-Nov-14 01:30N 37°38' W 122°19'2 3.8
2017-Nov-14 01:00N 37°36' W 122°19'1 2.0
2017-Nov-14 00:30N 37°35' W 122°19'0 0.1
2017-Nov-14 00:00N 37°35' W 122°19'0 0.0
2017-Nov-11 22:43N 37°35' W 122°19'0 0.1
2017-Nov-11 22:30N 37°35' W 122°19'2 3.3
2017-Nov-11 22:00N 37°37' W 122°19'3 5.8
2017-Nov-11 21:30N 37°40' W 122°20'3 5.9
2017-Nov-11 21:00N 37°43' W 122°21'3 5.9
2017-Nov-11 20:30N 37°46' W 122°22'3 5.4
2017-Nov-11 20:00N 37°48' W 122°24'2 4.0
2017-Nov-11 19:30N 37°49' W 122°25'2 4.7
2017-Nov-11 19:00N 37°48' W 122°23'3 6.5
2017-Nov-11 18:30N 37°45' W 122°22'3 6.4
2017-Nov-11 18:00N 37°42' W 122°20'3 6.0
2017-Nov-11 17:30N 37°39' W 122°19'3 5.5
2017-Nov-11 17:00N 37°36' W 122°18'1 2.3
2017-Nov-11 16:30N 37°35' W 122°19'0 0.0
2017-Nov-10 20:54N 37°35' W 122°19'0 0.2
2017-Nov-10 20:31N 37°35' W 122°19'0 0.0
2017-Nov-10 20:01N 37°35' W 122°19'0 0.0
2017-Nov-10 19:31N 37°35' W 122°19'0 0.0
2017-Nov-10 19:01N 37°35' W 122°19'  
2017-Nov-07 06:27N 37°35' W 122°19'0 0.1
2017-Nov-07 06:00N 37°35' W 122°19'2 3.3
2017-Nov-07 05:31N 37°36' W 122°17'2 4.6
2017-Nov-07 05:00N 37°34' W 122°15'0 1.0
2017-Nov-07 04:30N 37°35' W 122°15'3 5.3
2017-Nov-07 04:01N 37°37' W 122°17'3 5.6
2017-Nov-07 03:30N 37°39' W 122°18'3 5.2
2017-Nov-07 03:01N 37°42' W 122°20'2 4.9
2017-Nov-07 02:30N 37°44' W 122°21'2 4.7
2017-Nov-07 02:00N 37°46' W 122°22'2 4.2
2017-Nov-07 01:30N 37°48' W 122°23'2 3.7
2017-Nov-07 01:00N 37°49' W 122°25'1 2.1
2017-Nov-07 00:30N 37°49' W 122°24'4 8.1
2017-Nov-07 00:00N 37°45' W 122°22'4 7.5
2017-Nov-06 23:30N 37°42' W 122°21'3 6.9
2017-Nov-06 23:00N 37°38' W 122°20'3 5.5
2017-Nov-06 22:30N 37°35' W 122°19'0 0.0
2017-Nov-06 22:00N 37°35' W 122°19'  
Track history (hours):
 
Tides and Currents Weather Stations Pressure Air Temp Water Temp Dewpoint Dewpoint Depression Visibility Wind Speed Wind Dir Waves Ship Positions

Brandy Bar

Owner: Brandy Bar, Tiburon, CA. More information available from US FCC via Universal Licensing System and Coast Guard Vessel Documentation Center.

Last reported at 2017-Nov-16 01:14 UTC. Time now 2017-Nov-22 09:05 UTC.
Position N 37°47' W 122°23'.

Type: Towing. MMSI: 367483310.

Date/timePositionNaut miles runAvg speedWind from/ knotsBaromVisibWave heightAir tempDewpointWater temp
2017-Nov-16 01:14N 37°47' W 122°23'12 5.0
2017-Nov-15 22:54N 37°35' W 122°19'0 0.0
2017-Nov-15 22:30N 37°35' W 122°19'0 0.0
2017-Nov-15 21:21N 37°35' W 122°19'0 0.2
2017-Nov-15 21:00N 37°35' W 122°19'0 0.1
2017-Nov-15 20:30N 37°35' W 122°19'0 0.0
2017-Nov-14 07:59N 37°35' W 122°19'1 1.0
2017-Nov-14 07:30N 37°36' W 122°19'3 5.3
2017-Nov-14 07:01N 37°38' W 122°19'3 5.2
2017-Nov-14 06:30N 37°41' W 122°20'3 5.2
2017-Nov-14 06:01N 37°43' W 122°21'3 5.3
2017-Nov-14 05:31N 37°46' W 122°22'3 5.3
2017-Nov-14 05:01N 37°48' W 122°24'2 3.5
2017-Nov-14 04:31N 37°49' W 122°25'2 4.4
2017-Nov-14 04:00N 37°48' W 122°23'2 4.4
2017-Nov-14 03:30N 37°46' W 122°22'2 4.0
2017-Nov-14 03:00N 37°44' W 122°21'2 3.9
2017-Nov-14 02:30N 37°42' W 122°21'2 4.0
2017-Nov-14 02:00N 37°40' W 122°20'2 4.0
2017-Nov-14 01:30N 37°38' W 122°19'2 3.8
2017-Nov-14 01:00N 37°36' W 122°19'1 2.0
2017-Nov-14 00:30N 37°35' W 122°19'0 0.1
2017-Nov-14 00:00N 37°35' W 122°19'0 0.0
2017-Nov-11 22:43N 37°35' W 122°19'0 0.1
2017-Nov-11 22:30N 37°35' W 122°19'2 3.3
2017-Nov-11 22:00N 37°37' W 122°19'3 5.8
2017-Nov-11 21:30N 37°40' W 122°20'3 5.9
2017-Nov-11 21:00N 37°43' W 122°21'3 5.9
2017-Nov-11 20:30N 37°46' W 122°22'3 5.4
2017-Nov-11 20:00N 37°48' W 122°24'2 4.0
2017-Nov-11 19:30N 37°49' W 122°25'2 4.7
2017-Nov-11 19:00N 37°48' W 122°23'3 6.5
2017-Nov-11 18:30N 37°45' W 122°22'3 6.4
2017-Nov-11 18:00N 37°42' W 122°20'3 6.0
2017-Nov-11 17:30N 37°39' W 122°19'3 5.5
2017-Nov-11 17:00N 37°36' W 122°18'1 2.3
2017-Nov-11 16:30N 37°35' W 122°19'0 0.0
2017-Nov-10 20:54N 37°35' W 122°19'0 0.2
2017-Nov-10 20:31N 37°35' W 122°19'0 0.0
2017-Nov-10 20:01N 37°35' W 122°19'0 0.0
2017-Nov-10 19:31N 37°35' W 122°19'0 0.0
2017-Nov-10 19:01N 37°35' W 122°19'  
2017-Nov-07 06:27N 37°35' W 122°19'0 0.1
2017-Nov-07 06:00N 37°35' W 122°19'2 3.3
2017-Nov-07 05:31N 37°36' W 122°17'2 4.6
2017-Nov-07 05:00N 37°34' W 122°15'0 1.0
2017-Nov-07 04:30N 37°35' W 122°15'3 5.3
2017-Nov-07 04:01N 37°37' W 122°17'3 5.6
2017-Nov-07 03:30N 37°39' W 122°18'3 5.2
2017-Nov-07 03:01N 37°42' W 122°20'2 4.9
2017-Nov-07 02:30N 37°44' W 122°21'2 4.7
2017-Nov-07 02:00N 37°46' W 122°22'2 4.2
2017-Nov-07 01:30N 37°48' W 122°23'2 3.7
2017-Nov-07 01:00N 37°49' W 122°25'1 2.1
2017-Nov-07 00:30N 37°49' W 122°24'4 8.1
2017-Nov-07 00:00N 37°45' W 122°22'4 7.5
2017-Nov-06 23:30N 37°42' W 122°21'3 6.9
2017-Nov-06 23:00N 37°38' W 122°20'3 5.5
2017-Nov-06 22:30N 37°35' W 122°19'0 0.0
2017-Nov-06 22:00N 37°35' W 122°19'  

Dump ship's entire track history